sensor_id;sensor_type;location;lat;lon;timestamp;pressure;altitude;pressure_sealevel;temperature;humidity
40612;BME280;26317;44.894;20.286;2023-03-23T00:00:08;100724.03;;;12.05;60.36
40612;BME280;26317;44.894;20.286;2023-03-23T00:02:42;100717.59;;;12.01;60.10
40612;BME280;26317;44.894;20.286;2023-03-23T00:05:20;100719.75;;;11.98;59.96
40612;BME280;26317;44.894;20.286;2023-03-23T00:08:09;100723.25;;;11.94;59.80
40612;BME280;26317;44.894;20.286;2023-03-23T00:11:00;100720.84;;;11.92;60.64
40612;BME280;26317;44.894;20.286;2023-03-23T00:13:49;100722.50;;;11.83;60.93
40612;BME280;26317;44.894;20.286;2023-03-23T00:16:30;100732.44;;;11.78;61.09
40612;BME280;26317;44.894;20.286;2023-03-23T00:19:22;100725.50;;;11.72;62.16
40612;BME280;26317;44.894;20.286;2023-03-23T00:21:56;100718.22;;;11.67;61.99
40612;BME280;26317;44.894;20.286;2023-03-23T00:24:38;100721.41;;;11.69;61.92
40612;BME280;26317;44.894;20.286;2023-03-23T00:27:14;100709.63;;;11.65;61.51
40612;BME280;26317;44.894;20.286;2023-03-23T00:30:07;100717.44;;;11.72;60.99
40612;BME280;26317;44.894;20.286;2023-03-23T00:32:52;100717.66;;;11.70;61.33
40612;BME280;26317;44.894;20.286;2023-03-23T00:35:31;100715.28;;;11.69;61.40
40612;BME280;26317;44.894;20.286;2023-03-23T00:38:20;100709.59;;;11.70;61.17
40612;BME280;26317;44.894;20.286;2023-03-23T00:40:55;100664.31;;;11.38;61.36
40612;BME280;26317;44.894;20.286;2023-03-23T00:43:42;100683.09;;;11.43;62.12
40612;BME280;26317;44.894;20.286;2023-03-23T00:46:34;100707.22;;;11.53;62.86
40612;BME280;26317;44.894;20.286;2023-03-23T00:49:22;100712.34;;;11.50;63.17
40612;BME280;26317;44.894;20.286;2023-03-23T00:52:15;100706.97;;;11.45;63.64
40612;BME280;26317;44.894;20.286;2023-03-23T00:54:57;100711.28;;;11.41;63.52
40612;BME280;26317;44.894;20.286;2023-03-23T00:57:40;100671.59;;;11.18;63.57
40612;BME280;26317;44.894;20.286;2023-03-23T01:00:25;100702.16;;;11.32;63.60
40612;BME280;26317;44.894;20.286;2023-03-23T01:03:19;100698.69;;;11.31;63.43
40612;BME280;26317;44.894;20.286;2023-03-23T01:06:09;100694.41;;;11.30;63.26
40612;BME280;26317;44.894;20.286;2023-03-23T01:08:47;100685.03;;;11.23;63.35
40612;BME280;26317;44.894;20.286;2023-03-23T01:11:36;100694.66;;;11.29;63.41
40612;BME280;26317;44.894;20.286;2023-03-23T01:14:17;100694.66;;;11.24;63.23
40612;BME280;26317;44.894;20.286;2023-03-23T01:16:54;100696.28;;;11.20;63.63
40612;BME280;26317;44.894;20.286;2023-03-23T01:19:35;100689.84;;;11.16;63.31
40612;BME280;26317;44.894;20.286;2023-03-23T01:22:11;100679.41;;;11.09;63.80
40612;BME280;26317;44.894;20.286;2023-03-23T01:24:48;100663.03;;;10.95;63.83
40612;BME280;26317;44.894;20.286;2023-03-23T01:27:46;100652.84;;;10.87;63.57
40612;BME280;26317;44.894;20.286;2023-03-23T01:30:35;100689.31;;;11.08;63.68
40612;BME280;26317;44.894;20.286;2023-03-23T01:33:11;100693.88;;;11.08;63.97
40612;BME280;26317;44.894;20.286;2023-03-23T01:36:10;100690.13;;;11.04;64.66
40612;BME280;26317;44.894;20.286;2023-03-23T01:38:54;100693.63;;;10.99;64.91
40612;BME280;26317;44.894;20.286;2023-03-23T01:41:39;100686.13;;;10.91;64.72
40612;BME280;26317;44.894;20.286;2023-03-23T01:47:28;100694.16;;;10.91;65.12
40612;BME280;26317;44.894;20.286;2023-03-23T01:50:10;100696.84;;;10.86;65.34
40612;BME280;26317;44.894;20.286;2023-03-23T01:53:05;100690.66;;;10.86;65.43
40612;BME280;26317;44.894;20.286;2023-03-23T01:56:06;100698.19;;;10.84;64.88
40612;BME280;26317;44.894;20.286;2023-03-23T01:58:47;100692.03;;;10.83;64.64
40612;BME280;26317;44.894;20.286;2023-03-23T02:01:31;100681.28;;;10.78;64.92
40612;BME280;26317;44.894;20.286;2023-03-23T02:04:14;100694.97;;;10.87;64.73
40612;BME280;26317;44.894;20.286;2023-03-23T02:07:02;100674.84;;;10.69;64.97
40612;BME280;26317;44.894;20.286;2023-03-23T02:09:46;100689.06;;;10.75;64.79
40612;BME280;26317;44.894;20.286;2023-03-23T02:12:35;100694.69;;;10.73;64.67
40612;BME280;26317;44.894;20.286;2023-03-23T02:15:08;100702.75;;;10.78;65.04
40612;BME280;26317;44.894;20.286;2023-03-23T02:17:58;100694.16;;;10.81;65.10
40612;BME280;26317;44.894;20.286;2023-03-23T02:21:04;100705.19;;;10.85;64.78
40612;BME280;26317;44.894;20.286;2023-03-23T02:27:47;100708.66;;;10.90;64.50
40612;BME280;26317;44.894;20.286;2023-03-23T02:34:06;100706.78;;;10.91;63.99
40612;BME280;26317;44.894;20.286;2023-03-23T02:36:48;100698.47;;;10.87;64.15
40612;BME280;26317;44.894;20.286;2023-03-23T02:39:33;100698.19;;;10.84;64.69
40612;BME280;26317;44.894;20.286;2023-03-23T02:42:22;100682.91;;;10.64;64.58
40612;BME280;26317;44.894;20.286;2023-03-23T02:45:04;100698.72;;;10.76;64.63
40612;BME280;26317;44.894;20.286;2023-03-23T02:47:49;100713.22;;;10.80;64.21
40612;BME280;26317;44.894;20.286;2023-03-23T02:50:31;100722.34;;;10.79;63.89
40612;BME280;26317;44.894;20.286;2023-03-23T02:53:16;100712.69;;;10.73;63.62
40612;BME280;26317;44.894;20.286;2023-03-23T02:56:03;100689.56;;;10.56;64.41
40612;BME280;26317;44.894;20.286;2023-03-23T02:58:40;100710.81;;;10.68;64.30
40612;BME280;26317;44.894;20.286;2023-03-23T03:01:53;100717.22;;;10.67;64.57
40612;BME280;26317;44.894;20.286;2023-03-23T03:04:41;100699.50;;;10.51;64.72
40612;BME280;26317;44.894;20.286;2023-03-23T03:07:45;100713.19;;;10.49;65.38
40612;BME280;26317;44.894;20.286;2023-03-23T03:10:33;100727.94;;;10.47;65.64
40612;BME280;26317;44.894;20.286;2023-03-23T03:13:35;100706.44;;;10.37;65.31
40612;BME280;26317;44.894;20.286;2023-03-23T03:16:25;100721.22;;;10.39;65.55
40612;BME280;26317;44.894;20.286;2023-03-23T03:19:12;100731.94;;;10.39;65.33
40612;BME280;26317;44.894;20.286;2023-03-23T03:21:57;100724.66;;;10.40;65.18
40612;BME280;26317;44.894;20.286;2023-03-23T03:24:46;100730.84;;;10.40;65.50
40612;BME280;26317;44.894;20.286;2023-03-23T03:27:25;100726.03;;;10.37;65.63
40612;BME280;26317;44.894;20.286;2023-03-23T03:30:16;100728.19;;;10.35;65.74
40612;BME280;26317;44.894;20.286;2023-03-23T03:32:59;100726.81;;;10.33;66.28
40612;BME280;26317;44.894;20.286;2023-03-23T03:35:45;100727.34;;;10.30;65.94
40612;BME280;26317;44.894;20.286;2023-03-23T03:38:43;100719.84;;;10.27;65.77
40612;BME280;26317;44.894;20.286;2023-03-23T03:41:22;100723.03;;;10.29;65.79
40612;BME280;26317;44.894;20.286;2023-03-23T03:43:57;100718.75;;;10.28;66.02
40612;BME280;26317;44.894;20.286;2023-03-23T03:46:38;100715.53;;;10.26;65.92
40612;BME280;26317;44.894;20.286;2023-03-23T03:49:18;100725.47;;;10.25;66.34
40612;BME280;26317;44.894;20.286;2023-03-23T03:52:00;100711.16;;;10.14;65.90
40612;BME280;26317;44.894;20.286;2023-03-23T03:54:40;100729.75;;;10.26;65.82
40612;BME280;26317;44.894;20.286;2023-03-23T03:57:32;100699.38;;;10.10;65.74
40612;BME280;26317;44.894;20.286;2023-03-23T04:00:20;100722.53;;;10.27;65.67
40612;BME280;26317;44.894;20.286;2023-03-23T04:02:56;100723.59;;;10.26;66.42
40612;BME280;26317;44.894;20.286;2023-03-23T04:05:50;100702.59;;;10.12;66.65
40612;BME280;26317;44.894;20.286;2023-03-23T04:08:42;100718.94;;;10.06;66.77
40612;BME280;26317;44.894;20.286;2023-03-23T04:11:50;100696.31;;;9.82;66.73
40612;BME280;26317;44.894;20.286;2023-03-23T04:15:07;100722.09;;;9.93;66.95
40612;BME280;26317;44.894;20.286;2023-03-23T04:17:49;100731.19;;;9.92;67.06
40612;BME280;26317;44.894;20.286;2023-03-23T04:20:32;100726.88;;;9.86;67.20
40612;BME280;26317;44.894;20.286;2023-03-23T04:23:10;100730.88;;;9.83;67.80
40612;BME280;26317;44.894;20.286;2023-03-23T04:26:01;100728.44;;;9.77;67.92
40612;BME280;26317;44.894;20.286;2023-03-23T04:28:45;100731.06;;;9.66;67.76
40612;BME280;26317;44.894;20.286;2023-03-23T04:31:36;100725.97;;;9.65;68.48
40612;BME280;26317;44.894;20.286;2023-03-23T04:34:30;100720.59;;;9.60;68.45
40612;BME280;26317;44.894;20.286;2023-03-23T04:37:11;100701.22;;;9.48;68.97
40612;BME280;26317;44.894;20.286;2023-03-23T04:39:58;100725.44;;;9.63;68.90
40612;BME280;26317;44.894;20.286;2023-03-23T04:42:39;100725.94;;;9.60;68.92
40612;BME280;26317;44.894;20.286;2023-03-23T04:45:52;100724.34;;;9.59;69.21
40612;BME280;26317;44.894;20.286;2023-03-23T04:48:33;100727.53;;;9.61;69.44
40612;BME280;26317;44.894;20.286;2023-03-23T04:51:14;100727.25;;;9.57;70.98
40612;BME280;26317;44.894;20.286;2023-03-23T04:54:00;100729.94;;;9.57;71.88
40612;BME280;26317;44.894;20.286;2023-03-23T04:56:54;100732.31;;;9.54;72.71
40612;BME280;26317;44.894;20.286;2023-03-23T04:59:42;100735.53;;;9.51;73.19
40612;BME280;26317;44.894;20.286;2023-03-23T05:02:28;100733.91;;;9.50;73.68
40612;BME280;26317;44.894;20.286;2023-03-23T05:05:14;100737.66;;;9.49;74.20
40612;BME280;26317;44.894;20.286;2023-03-23T05:08:05;100705.97;;;9.36;74.11
40612;BME280;26317;44.894;20.286;2023-03-23T05:10:55;100732.03;;;9.50;74.68
40612;BME280;26317;44.894;20.286;2023-03-23T05:13:32;100731.28;;;9.55;74.91
40612;BME280;26317;44.894;20.286;2023-03-23T05:16:12;100729.69;;;9.59;74.92
40612;BME280;26317;44.894;20.286;2023-03-23T05:18:52;100738.53;;;9.64;75.11
40612;BME280;26317;44.894;20.286;2023-03-23T05:21:36;100739.63;;;9.68;75.10
40612;BME280;26317;44.894;20.286;2023-03-23T05:24:17;100741.53;;;9.73;75.18
40612;BME280;26317;44.894;20.286;2023-03-23T05:26:56;100746.13;;;9.78;75.72
40612;BME280;26317;44.894;20.286;2023-03-23T05:29:38;100745.88;;;9.79;75.84
40612;BME280;26317;44.894;20.286;2023-03-23T05:32:16;100750.16;;;9.85;75.29
40612;BME280;26317;44.894;20.286;2023-03-23T05:34:51;100744.53;;;9.82;75.68
40612;BME280;26317;44.894;20.286;2023-03-23T05:37:42;100740.25;;;9.81;75.83
40612;BME280;26317;44.894;20.286;2023-03-23T05:40:23;100743.78;;;9.91;75.93
40612;BME280;26317;44.894;20.286;2023-03-23T05:43:12;100751.06;;;10.01;76.20
40612;BME280;26317;44.894;20.286;2023-03-23T05:46:22;100751.88;;;10.06;75.97
40612;BME280;26317;44.894;20.286;2023-03-23T05:49:13;100736.88;;;10.05;76.53
40612;BME280;26317;44.894;20.286;2023-03-23T05:51:57;100753.28;;;10.19;76.30
40612;BME280;26317;44.894;20.286;2023-03-23T05:54:41;100749.31;;;10.27;76.10
40612;BME280;26317;44.894;20.286;2023-03-23T05:57:32;100746.13;;;10.30;76.19
40612;BME280;26317;44.894;20.286;2023-03-23T06:00:23;100753.66;;;10.38;76.40
40612;BME280;26317;44.894;20.286;2023-03-23T06:03:17;100750.97;;;10.48;75.95
40612;BME280;26317;44.894;20.286;2023-03-23T06:06:20;100750.47;;;10.56;76.14
40612;BME280;26317;44.894;20.286;2023-03-23T06:09:27;100748.63;;;10.67;75.70
40612;BME280;26317;44.894;20.286;2023-03-23T06:12:27;100750.78;;;10.75;75.78
40612;BME280;26317;44.894;20.286;2023-03-23T06:15:27;100743.25;;;10.87;75.67
40612;BME280;26317;44.894;20.286;2023-03-23T06:18:25;100741.13;;;10.99;75.45
40612;BME280;26317;44.894;20.286;2023-03-23T06:21:22;100739.00;;;11.06;75.30
40612;BME280;26317;44.894;20.286;2023-03-23T06:24:18;100749.47;;;11.23;74.92
40612;BME280;26317;44.894;20.286;2023-03-23T06:27:04;100746.19;;;11.36;74.86
40612;BME280;26317;44.894;20.286;2023-03-23T06:29:46;100745.66;;;11.44;74.61
40612;BME280;26317;44.894;20.286;2023-03-23T06:32:34;100742.44;;;11.52;74.81
40612;BME280;26317;44.894;20.286;2023-03-23T06:35:19;100748.34;;;11.59;74.51
40612;BME280;26317;44.894;20.286;2023-03-23T06:38:16;100753.19;;;11.72;74.57
40612;BME280;26317;44.894;20.286;2023-03-23T06:41:09;100758.25;;;11.84;74.76
40612;BME280;26317;44.894;20.286;2023-03-23T06:43:51;100753.13;;;11.92;74.32
40612;BME280;26317;44.894;20.286;2023-03-23T06:46:34;100763.28;;;12.06;74.01
40612;BME280;26317;44.894;20.286;2023-03-23T06:49:38;100764.84;;;12.17;74.11
40612;BME280;26317;44.894;20.286;2023-03-23T06:52:35;100759.13;;;12.28;73.29
40612;BME280;26317;44.894;20.286;2023-03-23T06:55:26;100764.22;;;12.35;73.05
40612;BME280;26317;44.894;20.286;2023-03-23T06:58:12;100767.16;;;12.43;73.20
40612;BME280;26317;44.894;20.286;2023-03-23T07:00:56;100767.38;;;12.52;72.67
40612;BME280;26317;44.894;20.286;2023-03-23T07:03:43;100772.41;;;12.64;71.33
40612;BME280;26317;44.894;20.286;2023-03-23T07:06:33;100775.31;;;12.72;71.65
40612;BME280;26317;44.894;20.286;2023-03-23T07:09:39;100764.78;;;12.81;71.43
40612;BME280;26317;44.894;20.286;2023-03-23T07:12:25;100748.88;;;12.79;70.62
40612;BME280;26317;44.894;20.286;2023-03-23T07:15:02;100773.75;;;13.05;70.22
40612;BME280;26317;44.894;20.286;2023-03-23T07:18:01;100779.38;;;13.14;69.65
40612;BME280;26317;44.894;20.286;2023-03-23T07:20:56;100776.34;;;13.20;69.20
40612;BME280;26317;44.894;20.286;2023-03-23T07:23:49;100781.41;;;13.27;69.74
40612;BME280;26317;44.894;20.286;2023-03-23T07:26:51;100784.81;;;13.38;69.66
40612;BME280;26317;44.894;20.286;2023-03-23T07:29:36;100779.03;;;13.49;69.66
40612;BME280;26317;44.894;20.286;2023-03-23T07:32:35;100780.84;;;13.59;68.73
40612;BME280;26317;44.894;20.286;2023-03-23T07:35:11;100781.09;;;13.62;69.03
40612;BME280;26317;44.894;20.286;2023-03-23T07:38:10;100785.34;;;13.68;68.73
40612;BME280;26317;44.894;20.286;2023-03-23T07:40:52;100783.06;;;13.80;69.23
40612;BME280;26317;44.894;20.286;2023-03-23T07:43:42;100781.91;;;13.87;68.95
40612;BME280;26317;44.894;20.286;2023-03-23T07:46:45;100781.00;;;13.96;69.01
40612;BME280;26317;44.894;20.286;2023-03-23T07:49:21;100780.03;;;14.11;67.95
40612;BME280;26317;44.894;20.286;2023-03-23T07:52:19;100786.63;;;14.23;68.47
40612;BME280;26317;44.894;20.286;2023-03-23T07:55:18;100787.06;;;14.31;67.96
40612;BME280;26317;44.894;20.286;2023-03-23T07:58:03;100785.28;;;14.45;67.77
40612;BME280;26317;44.894;20.286;2023-03-23T08:00:42;100785.09;;;14.60;67.31
40612;BME280;26317;44.894;20.286;2023-03-23T08:03:32;100779.31;;;14.66;67.23
40612;BME280;26317;44.894;20.286;2023-03-23T08:06:40;100790.47;;;14.79;65.46
40612;BME280;26317;44.894;20.286;2023-03-23T08:09:41;100792.47;;;14.92;65.72
40612;BME280;26317;44.894;20.286;2023-03-23T08:13:04;100799.75;;;15.10;64.86
40612;BME280;26317;44.894;20.286;2023-03-23T08:15:48;100797.41;;;15.22;62.84
40612;BME280;26317;44.894;20.286;2023-03-23T08:18:56;100763.75;;;15.14;62.55
40612;BME280;26317;44.894;20.286;2023-03-23T08:21:58;100787.81;;;15.30;61.43
40612;BME280;26317;44.894;20.286;2023-03-23T08:24:57;100794.75;;;15.36;60.99
40612;BME280;26317;44.894;20.286;2023-03-23T08:28:03;100782.59;;;15.52;60.36
40612;BME280;26317;44.894;20.286;2023-03-23T08:30:58;100801.03;;;15.63;60.95
40612;BME280;26317;44.894;20.286;2023-03-23T08:33:58;100797.38;;;15.73;60.02
40612;BME280;26317;44.894;20.286;2023-03-23T08:36:42;100781.34;;;15.77;61.19
40612;BME280;26317;44.894;20.286;2023-03-23T08:39:29;100788.34;;;15.91;60.19
40612;BME280;26317;44.894;20.286;2023-03-23T08:42:48;100798.91;;;16.06;60.26
40612;BME280;26317;44.894;20.286;2023-03-23T08:45:52;100806.41;;;16.09;59.35
40612;BME280;26317;44.894;20.286;2023-03-23T08:48:43;100811.81;;;16.09;58.42
40612;BME280;26317;44.894;20.286;2023-03-23T08:51:43;100806.59;;;16.27;59.32
40612;BME280;26317;44.894;20.286;2023-03-23T08:54:42;100810.69;;;16.38;57.77
40612;BME280;26317;44.894;20.286;2023-03-23T08:57:28;100812.41;;;16.34;57.08
40612;BME280;26317;44.894;20.286;2023-03-23T09:00:25;100804.19;;;16.39;56.31
40612;BME280;26317;44.894;20.286;2023-03-23T09:03:20;100799.78;;;16.43;56.46
40612;BME280;26317;44.894;20.286;2023-03-23T09:06:14;100812.72;;;16.60;56.54
40612;BME280;26317;44.894;20.286;2023-03-23T09:08:55;100804.75;;;16.77;56.36
40612;BME280;26317;44.894;20.286;2023-03-23T09:11:34;100802.78;;;16.91;56.52
40612;BME280;26317;44.894;20.286;2023-03-23T09:14:13;100796.09;;;16.88;56.05
40612;BME280;26317;44.894;20.286;2023-03-23T09:16:52;100811.31;;;16.98;54.37
40612;BME280;26317;44.894;20.286;2023-03-23T09:19:43;100808.13;;;17.18;51.87
40612;BME280;26317;44.894;20.286;2023-03-23T09:22:25;100805.16;;;17.28;53.67
40612;BME280;26317;44.894;20.286;2023-03-23T09:25:09;100806.63;;;17.34;53.99
40612;BME280;26317;44.894;20.286;2023-03-23T09:27:49;100804.34;;;17.50;51.79
40612;BME280;26317;44.894;20.286;2023-03-23T09:30:40;100802.09;;;17.66;51.92
40612;BME280;26317;44.894;20.286;2023-03-23T09:33:27;100797.47;;;17.75;53.50
40612;BME280;26317;44.894;20.286;2023-03-23T09:36:18;100767.78;;;17.70;48.96
40612;BME280;26317;44.894;20.286;2023-03-23T09:39:09;100792.13;;;17.92;50.71
40612;BME280;26317;44.894;20.286;2023-03-23T09:42:06;100783.72;;;18.02;51.48
40612;BME280;26317;44.894;20.286;2023-03-23T09:45:07;100775.78;;;18.14;48.92
40612;BME280;26317;44.894;20.286;2023-03-23T09:51:07;100758.06;;;18.25;47.52
40612;BME280;26317;44.894;20.286;2023-03-23T09:53:48;100764.66;;;18.42;49.05
40612;BME280;26317;44.894;20.286;2023-03-23T09:56:32;100733.00;;;18.37;43.41
40612;BME280;26317;44.894;20.286;2023-03-23T09:59:18;100748.53;;;18.54;43.64
40612;BME280;26317;44.894;20.286;2023-03-23T10:02:12;100769.84;;;18.77;42.56
40612;BME280;26317;44.894;20.286;2023-03-23T10:05:02;100778.16;;;18.90;42.80
40612;BME280;26317;44.894;20.286;2023-03-23T10:07:53;100763.91;;;18.93;41.51
40612;BME280;26317;44.894;20.286;2023-03-23T10:10:56;100759.44;;;18.88;43.22
40612;BME280;26317;44.894;20.286;2023-03-23T10:13:57;100760.53;;;19.04;43.61
40612;BME280;26317;44.894;20.286;2023-03-23T10:16:54;100753.53;;;19.12;42.78
40612;BME280;26317;44.894;20.286;2023-03-23T10:19:39;100756.03;;;19.17;43.42
40612;BME280;26317;44.894;20.286;2023-03-23T10:22:26;100746.59;;;19.23;42.00
40612;BME280;26317;44.894;20.286;2023-03-23T10:25:16;100753.94;;;19.40;39.89
40612;BME280;26317;44.894;20.286;2023-03-23T10:28:09;100756.81;;;19.43;41.19
40612;BME280;26317;44.894;20.286;2023-03-23T10:30:46;100732.66;;;19.33;40.71
40612;BME280;26317;44.894;20.286;2023-03-23T10:33:38;100745.63;;;19.45;40.25
40612;BME280;26317;44.894;20.286;2023-03-23T10:36:22;100738.72;;;19.47;39.96
40612;BME280;26317;44.894;20.286;2023-03-23T10:39:11;100729.91;;;19.50;39.03
40612;BME280;26317;44.894;20.286;2023-03-23T10:41:49;100731.50;;;19.60;40.28
40612;BME280;26317;44.894;20.286;2023-03-23T10:44:24;100712.97;;;19.45;39.86
40612;BME280;26317;44.894;20.286;2023-03-23T10:47:16;100728.06;;;19.71;40.56
40612;BME280;26317;44.894;20.286;2023-03-23T10:49:58;100726.38;;;19.88;39.68
40612;BME280;26317;44.894;20.286;2023-03-23T10:52:45;100732.28;;;19.98;41.97
40612;BME280;26317;44.894;20.286;2023-03-23T10:55:35;100733.97;;;20.11;39.21
40612;BME280;26317;44.894;20.286;2023-03-23T10:58:28;100714.69;;;20.16;37.56
40612;BME280;26317;44.894;20.286;2023-03-23T11:01:11;100724.47;;;20.17;39.22
40612;BME280;26317;44.894;20.286;2023-03-23T11:03:58;100696.97;;;20.10;37.28
40612;BME280;26317;44.894;20.286;2023-03-23T11:06:37;100722.34;;;20.32;37.42
40612;BME280;26317;44.894;20.286;2023-03-23T11:09:36;100718.94;;;20.35;37.93
40612;BME280;26317;44.894;20.286;2023-03-23T11:12:17;100716.22;;;20.35;36.49
40612;BME280;26317;44.894;20.286;2023-03-23T11:15:20;100720.25;;;20.29;37.38
40612;BME280;26317;44.894;20.286;2023-03-23T11:18:01;100711.59;;;20.27;36.54
40612;BME280;26317;44.894;20.286;2023-03-23T11:20:46;100704.94;;;20.15;37.19
40612;BME280;26317;44.894;20.286;2023-03-23T11:23:37;100694.19;;;20.19;37.31
40612;BME280;26317;44.894;20.286;2023-03-23T11:26:20;100710.31;;;20.33;38.18
40612;BME280;26317;44.894;20.286;2023-03-23T11:29:03;100704.13;;;20.44;38.72
40612;BME280;26317;44.894;20.286;2023-03-23T11:31:48;100697.00;;;20.52;39.00
40612;BME280;26317;44.894;20.286;2023-03-23T11:34:41;100691.41;;;20.69;37.64
40612;BME280;26317;44.894;20.286;2023-03-23T11:37:24;100689.06;;;20.80;36.23
40612;BME280;26317;44.894;20.286;2023-03-23T11:40:17;100687.84;;;20.89;36.08
40612;BME280;26317;44.894;20.286;2023-03-23T11:43:21;100686.75;;;21.02;35.95
40612;BME280;26317;44.894;20.286;2023-03-23T11:46:09;100677.41;;;21.12;36.59
40612;BME280;26317;44.894;20.286;2023-03-23T11:49:12;100673.88;;;21.24;35.76
40612;BME280;26317;44.894;20.286;2023-03-23T11:52:09;100664.91;;;21.35;35.50
40612;BME280;26317;44.894;20.286;2023-03-23T11:54:56;100667.53;;;21.44;35.73
40612;BME280;26317;44.894;20.286;2023-03-23T11:57:47;100665.50;;;21.53;34.61
40612;BME280;26317;44.894;20.286;2023-03-23T12:00:40;100662.56;;;21.58;35.42
40612;BME280;26317;44.894;20.286;2023-03-23T12:03:20;100663.69;;;21.69;34.44
40612;BME280;26317;44.894;20.286;2023-03-23T12:06:06;100654.09;;;21.75;33.98
40612;BME280;26317;44.894;20.286;2023-03-23T12:09:01;100653.19;;;21.83;34.27
40612;BME280;26317;44.894;20.286;2023-03-23T12:11:59;100639.66;;;21.87;33.73
40612;BME280;26317;44.894;20.286;2023-03-23T12:14:59;100650.59;;;21.99;33.52
40612;BME280;26317;44.894;20.286;2023-03-23T12:17:53;100645.34;;;22.06;33.52
40612;BME280;26317;44.894;20.286;2023-03-23T12:20:42;100651.56;;;22.19;32.41
40612;BME280;26317;44.894;20.286;2023-03-23T12:23:40;100645.22;;;22.15;32.94
40612;BME280;26317;44.894;20.286;2023-03-23T12:26:30;100632.44;;;22.19;34.56
40612;BME280;26317;44.894;20.286;2023-03-23T12:29:30;100607.09;;;22.06;33.15
40612;BME280;26317;44.894;20.286;2023-03-23T12:35:36;100624.44;;;22.26;33.13
40612;BME280;26317;44.894;20.286;2023-03-23T12:38:41;100617.38;;;22.37;32.64
40612;BME280;26317;44.894;20.286;2023-03-23T12:41:35;100611.19;;;22.40;33.38
40612;BME280;26317;44.894;20.286;2023-03-23T12:44:33;100607.66;;;22.39;33.52
40612;BME280;26317;44.894;20.286;2023-03-23T12:50:13;100598.41;;;22.72;33.04
40612;BME280;26317;44.894;20.286;2023-03-23T12:53:05;100599.59;;;22.71;32.78
40612;BME280;26317;44.894;20.286;2023-03-23T12:55:53;100590.75;;;22.77;32.11
40612;BME280;26317;44.894;20.286;2023-03-23T12:58:34;100589.38;;;22.83;32.52
40612;BME280;26317;44.894;20.286;2023-03-23T13:01:24;100585.03;;;22.98;31.88
40612;BME280;26317;44.894;20.286;2023-03-23T13:04:12;100588.41;;;23.07;31.49
40612;BME280;26317;44.894;20.286;2023-03-23T13:06:55;100585.91;;;23.18;31.64
40612;BME280;26317;44.894;20.286;2023-03-23T13:09:49;100562.97;;;23.07;31.53
40612;BME280;26317;44.894;20.286;2023-03-23T13:12:33;100585.81;;;23.30;31.42
40612;BME280;26317;44.894;20.286;2023-03-23T13:15:30;100576.19;;;23.36;32.08
40612;BME280;26317;44.894;20.286;2023-03-23T13:18:27;100570.78;;;23.39;30.80
40612;BME280;26317;44.894;20.286;2023-03-23T13:21:29;100545.63;;;23.34;31.21
40612;BME280;26317;44.894;20.286;2023-03-23T13:24:14;100534.00;;;23.21;29.75
40612;BME280;26317;44.894;20.286;2023-03-23T13:27:02;100558.97;;;23.35;31.26
40612;BME280;26317;44.894;20.286;2023-03-23T13:29:46;100562.78;;;23.31;31.18
40612;BME280;26317;44.894;20.286;2023-03-23T13:32:32;100553.06;;;23.18;31.05
40612;BME280;26317;44.894;20.286;2023-03-23T13:35:22;100551.94;;;23.19;31.61
40612;BME280;26317;44.894;20.286;2023-03-23T13:38:12;100549.47;;;23.29;30.40
40612;BME280;26317;44.894;20.286;2023-03-23T13:40:57;100544.53;;;23.19;30.97
40612;BME280;26317;44.894;20.286;2023-03-23T13:47:07;100547.75;;;23.41;31.24
40612;BME280;26317;44.894;20.286;2023-03-23T13:49:58;100536.19;;;23.47;29.84
40612;BME280;26317;44.894;20.286;2023-03-23T13:52:58;100531.75;;;23.43;29.28
40612;BME280;26317;44.894;20.286;2023-03-23T13:55:49;100536.56;;;23.46;30.36
40612;BME280;26317;44.894;20.286;2023-03-23T13:58:46;100527.00;;;23.39;30.92
40612;BME280;26317;44.894;20.286;2023-03-23T14:01:34;100528.69;;;23.44;31.03
40612;BME280;26317;44.894;20.286;2023-03-23T14:04:17;100521.34;;;23.48;30.49
40612;BME280;26317;44.894;20.286;2023-03-23T14:07:09;100523.38;;;23.51;31.38
40612;BME280;26317;44.894;20.286;2023-03-23T14:09:53;100524.63;;;23.54;30.76
40612;BME280;26317;44.894;20.286;2023-03-23T14:12:42;100521.44;;;23.52;30.20
40612;BME280;26317;44.894;20.286;2023-03-23T14:15:40;100521.63;;;23.43;31.14
40612;BME280;26317;44.894;20.286;2023-03-23T14:18:30;100516.84;;;23.40;30.80
40612;BME280;26317;44.894;20.286;2023-03-23T14:21:16;100515.91;;;23.32;30.54
40612;BME280;26317;44.894;20.286;2023-03-23T14:23:53;100508.47;;;23.33;31.04
40612;BME280;26317;44.894;20.286;2023-03-23T14:26:50;100513.56;;;23.34;31.21
40612;BME280;26317;44.894;20.286;2023-03-23T14:29:40;100511.16;;;23.29;31.12
40612;BME280;26317;44.894;20.286;2023-03-23T14:32:21;100510.50;;;23.36;31.17
40612;BME280;26317;44.894;20.286;2023-03-23T14:35:12;100506.63;;;23.37;29.98
40612;BME280;26317;44.894;20.286;2023-03-23T14:38:00;100505.19;;;23.43;30.17
40612;BME280;26317;44.894;20.286;2023-03-23T14:40:40;100492.19;;;23.40;30.62
40612;BME280;26317;44.894;20.286;2023-03-23T14:43:29;100510.19;;;23.57;29.79
40612;BME280;26317;44.894;20.286;2023-03-23T14:46:23;100504.66;;;23.72;29.96
40612;BME280;26317;44.894;20.286;2023-03-23T14:48:54;100497.97;;;23.70;29.63
40612;BME280;26317;44.894;20.286;2023-03-23T14:51:29;100512.00;;;23.68;30.94
40612;BME280;26317;44.894;20.286;2023-03-23T14:54:12;100493.56;;;23.65;30.73